Map

Track Data

SID SEASON NUMBER BASIN SUBBASIN NAME ISO_TIME NATURE LAT LON WMO_WIND WMO_PRES WMO_AGENCY TRACK_TYPE DIST2LAND LANDFALL IFLAG USA_AGENCY USA_ATCF_ID USA_LAT USA_LON USA_RECORD USA_STATUS USA_WIND USA_PRES USA_SSHS USA_R34_NE USA_R34_SE USA_R34_SW USA_R34_NW USA_R50_NE USA_R50_SE USA_R50_SW USA_R50_NW USA_R64_NE USA_R64_SE USA_R64_SW USA_R64_NW USA_POCI USA_ROCI USA_RMW USA_EYE TOKYO_LAT TOKYO_LON TOKYO_GRADE TOKYO_WIND TOKYO_PRES TOKYO_R50_DIR TOKYO_R50_LONG TOKYO_R50_SHORT TOKYO_R30_DIR TOKYO_R30_LONG TOKYO_R30_SHORT TOKYO_LAND CMA_LAT CMA_LON CMA_CAT CMA_WIND CMA_PRES HKO_LAT HKO_LON HKO_CAT HKO_WIND HKO_PRES NEWDELHI_LAT NEWDELHI_LON NEWDELHI_GRADE NEWDELHI_WIND NEWDELHI_PRES NEWDELHI_CI NEWDELHI_DP NEWDELHI_POCI REUNION_LAT REUNION_LON REUNION_TYPE REUNION_WIND REUNION_PRES REUNION_TNUM REUNION_CI REUNION_RMW REUNION_R34_NE REUNION_R34_SE REUNION_R34_SW REUNION_R34_NW REUNION_R50_NE REUNION_R50_SE REUNION_R50_SW REUNION_R50_NW REUNION_R64_NE REUNION_R64_SE REUNION_R64_SW REUNION_R64_NW BOM_LAT BOM_LON BOM_TYPE BOM_WIND BOM_PRES BOM_TNUM BOM_CI BOM_RMW BOM_R34_NE BOM_R34_SE BOM_R34_SW BOM_R34_NW BOM_R50_NE BOM_R50_SE BOM_R50_SW BOM_R50_NW BOM_R64_NE BOM_R64_SE BOM_R64_SW BOM_R64_NW BOM_ROCI BOM_POCI BOM_EYE BOM_POS_METHOD BOM_PRES_METHOD NADI_LAT NADI_LON NADI_CAT NADI_WIND NADI_PRES WELLINGTON_LAT WELLINGTON_LON WELLINGTON_WIND WELLINGTON_PRES DS824_LAT DS824_LON DS824_STAGE DS824_WIND DS824_PRES TD9636_LAT TD9636_LON TD9636_STAGE TD9636_WIND TD9636_PRES TD9635_LAT TD9635_LON TD9635_WIND TD9635_PRES TD9635_ROCI NEUMANN_LAT NEUMANN_LON NEUMANN_CLASS NEUMANN_WIND NEUMANN_PRES MLC_LAT MLC_LON MLC_CLASS MLC_WIND MLC_PRES USA_GUST BOM_GUST BOM_GUST_PER REUNION_GUST REUNION_GUST_PER USA_SEAHGT USA_SEARAD_NE USA_SEARAD_SE USA_SEARAD_SW USA_SEARAD_NW STORM_SPEED STORM_DIR
1947021S13064 1947 7 SI MM NOT_NAMED 1947-01-21 06:00:00 NR -12.6000 64.3000 reunion main 1095 1079 _____O________ -1 -12.6000 64.3000 99 9.90000 2 209
1947021S13064 1947 7 SI MM NOT_NAMED 1947-01-21 09:00:00 NR -12.7092 64.2462 main 1079 1071 _____P________ -1 -12.7092 64.2462 99 2 206
1947021S13064 1947 7 SI MM NOT_NAMED 1947-01-21 12:00:00 NR -12.8187 64.1926 main 1071 1055 _____P________ -1 -12.8187 64.1926 99 2 206
1947021S13064 1947 7 SI MM NOT_NAMED 1947-01-21 15:00:00 NR -12.9289 64.1398 main 1055 1046 _____P________ -1 -12.9289 64.1398 99 2 205
1947021S13064 1947 7 SI MM NOT_NAMED 1947-01-21 18:00:00 NR -13.0400 64.0881 main 1046 1031 _____P________ -1 -13.0400 64.0881 99 2 204
1947021S13064 1947 7 SI MM NOT_NAMED 1947-01-21 21:00:00 NR -13.1523 64.0379 main 1022 1014 _____P________ -1 -13.1523 64.0379 99 2 204
1947021S13064 1947 7 SI MM NOT_NAMED 1947-01-22 00:00:00 NR -13.2662 63.9896 main 1014 998 _____P________ -1 -13.2662 63.9896 99 2 202
1947021S13064 1947 7 SI MM NOT_NAMED 1947-01-22 03:00:00 NR -13.3820 63.9435 main 998 990 _____P________ -1 -13.3820 63.9435 99 3 201
1947021S13064 1947 7 SI MM NOT_NAMED 1947-01-22 06:00:00 NR -13.5000 63.9000 reunion main 990 981 _____O________ -1 -13.5000 63.9000 99 9.90000 3 199
1947021S13064 1947 7 SI MM NOT_NAMED 1947-01-22 09:00:00 NR -13.6214 63.8592 main 981 966 _____P________ -1 -13.6214 63.8592 99 3 197
1947021S13064 1947 7 SI MM NOT_NAMED 1947-01-22 12:00:00 NR -13.7507 63.8195 main 957 949 _____P________ -1 -13.7507 63.8195 99 3 196
1947021S13064 1947 7 SI MM NOT_NAMED 1947-01-22 15:00:00 NR -13.8935 63.7791 main 949 934 _____P________ -1 -13.8935 63.7791 99 3 194
1947021S13064 1947 7 SI MM NOT_NAMED 1947-01-22 18:00:00 NR -14.0551 63.7361 main 925 917 _____P________ -1 -14.0551 63.7361 99 4 194
1947021S13064 1947 7 SI MM NOT_NAMED 1947-01-22 21:00:00 NR -14.2411 63.6887 main 917 893 _____P________ -1 -14.2411 63.6887 99 4 193
1947021S13064 1947 7 SI MM NOT_NAMED 1947-01-23 00:00:00 NR -14.4570 63.6348 main 885 869 _____P________ -1 -14.4570 63.6348 99 5 193
1947021S13064 1947 7 SI MM NOT_NAMED 1947-01-23 03:00:00 NR -14.7081 63.5725 main 869 838 _____P________ -1 -14.7081 63.5725 99 6 193
1947021S13064 1947 7 SI MM NOT_NAMED 1947-01-23 06:00:00 NR -15.0000 63.5000 reunion main 838 800 _____O________ -1 -15.0000 63.5000 99 9.90000 7 194
1947021S13064 1947 7 SI MM NOT_NAMED 1947-01-23 09:00:00 NR -15.3733 63.4039 main 800 763 _____P________ -1 -15.3733 63.4039 99 8 194
1947021S13064 1947 7 SI MM NOT_NAMED 1947-01-23 12:00:00 NR -15.7923 63.2962 main 763 726 _____P________ -1 -15.7923 63.2962 99 9 194
1947021S13064 1947 7 SI MM NOT_NAMED 1947-01-23 15:00:00 NR -16.2434 63.1803 main 726 685 _____P________ -1 -16.2434 63.1803 99 10 194
1947021S13064 1947 7 SI MM NOT_NAMED 1947-01-23 18:00:00 NR -16.7129 63.0597 main 685 636 _____P________ -1 -16.7129 63.0597 99 10 194
1947021S13064 1947 7 SI MM NOT_NAMED 1947-01-23 21:00:00 NR -17.1870 62.9378 main 636 605 _____P________ -1 -17.1870 62.9378 99 10 194
1947021S13064 1947 7 SI MM NOT_NAMED 1947-01-24 00:00:00 NR -17.6520 62.8181 main 599 570 _____P________ -1 -17.6520 62.8181 99 9 194
1947021S13064 1947 7 SI MM NOT_NAMED 1947-01-24 03:00:00 NR -18.0942 62.7043 main 570 542 _____P________ -1 -18.0942 62.7043 99 9 194
1947021S13064 1947 7 SI MM NOT_NAMED 1947-01-24 06:00:00 NR -18.5000 62.6000 reunion main 542 524 _____O________ -1 -18.5000 62.6000 99 9.90000 7 197
1947021S13064 1947 7 SI MM NOT_NAMED 1947-01-24 09:00:00 NR -18.7509 62.4923 main 520 503 _____P________ -1 -18.7509 62.4923 99 5 203
1947021S13064 1947 7 SI MM NOT_NAMED 1947-01-24 12:00:00 NR -18.9618 62.3901 main 503 489 _____P________ -1 -18.9618 62.3901 99 4 205
1947021S13064 1947 7 SI MM NOT_NAMED 1947-01-24 15:00:00 NR -19.1525 62.2972 main 486 473 _____P________ -1 -19.1525 62.2972 99 4 203
1947021S13064 1947 7 SI MM NOT_NAMED 1947-01-24 18:00:00 NR -19.3430 62.2172 main 473 468 _____P________ -1 -19.3430 62.2172 99 4 199
1947021S13064 1947 7 SI MM NOT_NAMED 1947-01-24 21:00:00 NR -19.5530 62.1537 main 466 452 _____P________ -1 -19.5530 62.1537 99 5 192
1947021S13064 1947 7 SI MM NOT_NAMED 1947-01-25 00:00:00 NR -19.8026 62.1106 main 452 449 _____P________ -1 -19.8026 62.1106 99 6 185
1947021S13064 1947 7 SI MM NOT_NAMED 1947-01-25 03:00:00 NR -20.1116 62.0914 main 449 448 _____P________ -1 -20.1116 62.0914 99 7 182
1947021S13064 1947 7 SI MM NOT_NAMED 1947-01-25 06:00:00 NR -20.5000 62.1000 reunion main 448 448 _____O________ -1 -20.5000 62.1000 99 9.90000 10 178
1947021S13064 1947 7 SI MM NOT_NAMED 1947-01-25 09:00:00 NR -21.0991 62.1252 main 456 456 _____P________ -1 -21.0991 62.1252 99 13 177
1947021S13064 1947 7 SI MM NOT_NAMED 1947-01-25 12:00:00 NR -21.7826 62.1773 main 486 486 _____P________ -1 -21.7826 62.1773 99 14 175
1947021S13064 1947 7 SI MM NOT_NAMED 1947-01-25 15:00:00 NR -22.5229 62.2556 main 525 525 _____P________ -1 -22.5229 62.2556 99 15 174
1947021S13064 1947 7 SI MM NOT_NAMED 1947-01-25 18:00:00 NR -23.2920 62.3589 main 576 576 _____P________ -1 -23.2920 62.3589 99 16 172
1947021S13064 1947 7 SI MM NOT_NAMED 1947-01-25 21:00:00 NR -24.0621 62.4862 main 636 636 _____P________ -1 -24.0621 62.4862 99 15 171
1947021S13064 1947 7 SI MM NOT_NAMED 1947-01-26 00:00:00 NR -24.8054 62.6364 main 695 695 _____P________ -1 -24.8054 62.6364 99 15 168
1947021S13064 1947 7 SI MM NOT_NAMED 1947-01-26 03:00:00 NR -25.4939 62.8082 main 764 764 _____P________ -1 -25.4939 62.8082 99 13 166
1947021S13064 1947 7 SI MM NOT_NAMED 1947-01-26 06:00:00 NR -26.1000 63.0000 reunion main 827 827 _____O________ -1 -26.1000 63.0000 99 9.90000 11 161
1947021S13064 1947 7 SI MM NOT_NAMED 1947-01-26 09:00:00 NR -26.5541 63.2233 main 882 882 _____P________ -1 -26.5541 63.2233 99 9 153
1947021S13064 1947 7 SI MM NOT_NAMED 1947-01-26 12:00:00 NR -26.9380 63.4728 main 927 927 _____P________ -1 -26.9380 63.4728 99 8 147
1947021S13064 1947 7 SI MM NOT_NAMED 1947-01-26 15:00:00 NR -27.2594 63.7394 main 973 973 _____P________ -1 -27.2594 63.7394 99 8 141
1947021S13064 1947 7 SI MM NOT_NAMED 1947-01-26 18:00:00 NR -27.5260 64.0137 main 1010 1010 _____P________ -1 -27.5260 64.0137 99 7 135
1947021S13064 1947 7 SI MM NOT_NAMED 1947-01-26 21:00:00 NR -27.7455 64.2863 main 1046 1046 _____P________ -1 -27.7455 64.2863 99 6 130
1947021S13064 1947 7 SI MM NOT_NAMED 1947-01-27 00:00:00 NR -27.9258 64.5479 main 1076 1076 _____P________ -1 -27.9258 64.5479 99 6 127
1947021S13064 1947 7 SI MM NOT_NAMED 1947-01-27 03:00:00 NR -28.0747 64.7889 main 1112 1112 _____P________ -1 -28.0747 64.7889 99 5 124
1947021S13064 1947 7 SI MM NOT_NAMED 1947-01-27 06:00:00 NR -28.2000 65.0000 reunion main 1133 1133 _____O________ -1 -28.2000 65.0000 99 9.90000 4 125
1947021S13064 1947 7 SI MM NOT_NAMED 1947-01-27 09:00:00 NR -28.3087 65.1741 main 1155 1155 _____P________ -1 -28.3087 65.1741 99 3 126
1947021S13064 1947 7 SI MM NOT_NAMED 1947-01-27 12:00:00 NR -28.4039 65.3138 main 1169 1169 _____P________ -1 -28.4039 65.3138 99 3 129
1947021S13064 1947 7 SI MM NOT_NAMED 1947-01-27 15:00:00 NR -28.4875 65.4237 main 1184 1184 _____P________ -1 -28.4875 65.4237 99 2 132
1947021S13064 1947 7 SI MM NOT_NAMED 1947-01-27 18:00:00 NR -28.5614 65.5088 main 1199 1199 _____P________ -1 -28.5614 65.5088 99 2 136
1947021S13064 1947 7 SI MM NOT_NAMED 1947-01-27 21:00:00 NR -28.6278 65.5740 main 1206 1206 _____P________ -1 -28.6278 65.5740 99 2 141
1947021S13064 1947 7 SI MM NOT_NAMED 1947-01-28 00:00:00 NR -28.6883 65.6243 main 1214 1214 _____P________ -1 -28.6883 65.6243 99 1 145
1947021S13064 1947 7 SI MM NOT_NAMED 1947-01-28 03:00:00 NR -28.7451 65.6646 main 1221 1221 _____P________ -1 -28.7451 65.6646 99 1 148
1947021S13064 1947 7 SI MM NOT_NAMED 1947-01-28 06:00:00 NR -28.8000 65.7000 reunion main 1229 _____O________ -1 -28.8000 65.7000 99 9.90000 1 143

About IBTrACS Database

This database is a web-friendly format of International Best Track Archive for Climate Stewardship (IBTrACS), a global best track data archive curated by NOAA dating back to 1842.

Updated: 2021-12-06